createdAt,value
2022-10-09T00:01:06.994Z,18.18
2022-10-09T00:03:35.006Z,18.46
2022-10-09T00:06:02.436Z,17.98
2022-10-09T00:08:29.822Z,18.03
2022-10-09T00:10:56.846Z,18.17
2022-10-09T00:13:23.747Z,18.34
2022-10-09T00:15:50.696Z,18.58
2022-10-09T00:18:18.904Z,18.13
2022-10-09T00:20:46.755Z,18.90
2022-10-09T00:23:18.484Z,18.74
2022-10-09T00:25:53.699Z,18.84
2022-10-09T00:28:22.278Z,18.55
2022-10-09T00:30:49.325Z,18.57
2022-10-09T00:33:16.386Z,18.19
2022-10-09T00:35:43.322Z,17.67
2022-10-09T00:38:10.667Z,17.52
2022-10-09T00:40:38.398Z,17.58
2022-10-09T00:43:11.315Z,17.76
2022-10-09T00:45:38.438Z,17.49
2022-10-09T00:48:07.528Z,17.48
2022-10-09T00:50:40.823Z,17.63
2022-10-09T00:53:09.409Z,17.73
2022-10-09T00:55:37.243Z,17.93
2022-10-09T00:58:04.147Z,18.37
2022-10-09T01:00:31.002Z,17.32
2022-10-09T01:02:57.908Z,16.74
2022-10-09T01:05:41.325Z,18.12
2022-10-09T01:08:16.271Z,18.50
2022-10-09T01:10:59.202Z,17.86
2022-10-09T01:13:32.846Z,18.62
2022-10-09T01:16:23.986Z,17.59
2022-10-09T01:18:58.878Z,17.86
2022-10-09T01:21:46.344Z,17.58
2022-10-09T01:24:29.727Z,17.47
2022-10-09T01:27:00.915Z,17.67
2022-10-09T01:29:36.735Z,17.67
2022-10-09T01:32:04.415Z,17.14
2022-10-09T01:34:31.782Z,18.12
2022-10-09T01:36:59.352Z,18.46
2022-10-09T01:39:27.072Z,18.76
2022-10-09T01:41:54.398Z,17.52
2022-10-09T01:44:31.770Z,18.12
2022-10-09T01:46:59.177Z,18.42
2022-10-09T01:49:44.482Z,18.74
2022-10-09T01:52:41.394Z,18.11
2022-10-09T01:55:08.346Z,17.04
2022-10-09T01:57:48.368Z,16.51
2022-10-09T02:00:15.681Z,15.33
2022-10-09T02:02:43.454Z,15.58
2022-10-09T02:05:14.258Z,16.34
2022-10-09T02:07:41.463Z,16.26
2022-10-09T02:10:09.069Z,16.13
2022-10-09T02:12:39.394Z,16.59
2022-10-09T02:15:06.817Z,16.25
2022-10-09T02:17:35.609Z,17.61
2022-10-09T02:20:08.057Z,17.87
2022-10-09T02:22:36.441Z,17.91
2022-10-09T02:25:05.126Z,17.98
2022-10-09T02:27:32.839Z,17.60
2022-10-09T02:30:00.709Z,17.28
2022-10-09T02:32:28.625Z,17.67
2022-10-09T02:34:55.508Z,17.58
2022-10-09T02:37:22.348Z,17.33
2022-10-09T02:39:49.399Z,17.17
2022-10-09T02:42:16.237Z,17.11
2022-10-09T02:44:43.221Z,16.47
2022-10-09T02:47:10.107Z,17.09
2022-10-09T02:49:36.932Z,17.51
2022-10-09T02:52:03.802Z,17.27
2022-10-09T02:54:30.735Z,17.52
2022-10-09T02:56:57.592Z,16.54
2022-10-09T02:59:24.438Z,16.70
2022-10-09T03:01:51.361Z,17.89
2022-10-09T03:04:18.300Z,16.84
2022-10-09T03:06:45.152Z,17.04
2022-10-09T03:09:11.980Z,18.05
2022-10-09T03:11:38.827Z,18.59
2022-10-09T03:14:05.677Z,18.86
2022-10-09T03:16:32.595Z,19.05
2022-10-09T03:19:00.260Z,19.25
2022-10-09T03:21:28.092Z,18.11
2022-10-09T03:23:55.336Z,17.96
2022-10-09T03:26:24.757Z,17.82
2022-10-09T03:28:52.860Z,17.93
2022-10-09T03:31:49.929Z,17.42
2022-10-09T03:34:11.215Z,17.06
2022-10-09T03:36:38.111Z,16.97
2022-10-09T03:39:04.967Z,16.94
2022-10-09T03:41:31.855Z,16.99
2022-10-09T03:43:58.720Z,18.23
2022-10-09T03:46:25.639Z,18.42
2022-10-09T03:48:52.663Z,18.40
2022-10-09T03:51:19.493Z,18.39
2022-10-09T03:53:46.313Z,19.74
2022-10-09T03:56:13.172Z,19.35
2022-10-09T03:58:40.022Z,18.87
2022-10-09T04:01:06.915Z,19.14
2022-10-09T04:03:33.818Z,17.96
2022-10-09T04:06:00.662Z,19.14
2022-10-09T04:08:27.875Z,18.84
2022-10-09T04:10:58.894Z,18.93
2022-10-09T04:13:25.900Z,19.30
2022-10-09T04:15:54.023Z,18.54
2022-10-09T04:18:21.089Z,17.03
2022-10-09T04:20:52.699Z,16.82
2022-10-09T04:23:20.526Z,16.28
2022-10-09T04:25:47.400Z,16.67
2022-10-09T04:28:14.326Z,17.69
2022-10-09T04:30:41.587Z,17.37
2022-10-09T04:33:12.756Z,16.98
2022-10-09T04:35:49.532Z,16.91
2022-10-09T04:38:16.368Z,16.89
2022-10-09T04:40:43.251Z,16.30
2022-10-09T04:43:10.319Z,15.90
2022-10-09T04:45:40.809Z,16.17
2022-10-09T04:48:07.752Z,16.50
2022-10-09T04:50:34.601Z,15.69
2022-10-09T04:53:01.460Z,15.10
2022-10-09T04:55:28.272Z,14.92
2022-10-09T04:57:55.303Z,15.54
2022-10-09T05:00:22.535Z,15.07
2022-10-09T05:02:49.584Z,15.82
2022-10-09T05:05:16.793Z,15.00
2022-10-09T05:07:43.624Z,14.79
2022-10-09T05:10:10.496Z,15.41
2022-10-09T05:12:37.355Z,14.97
2022-10-09T05:15:05.023Z,16.13
2022-10-09T05:17:31.927Z,14.86
2022-10-09T05:19:58.919Z,15.50
2022-10-09T05:22:25.780Z,15.40
2022-10-09T05:24:52.603Z,15.70
2022-10-09T05:27:19.465Z,15.45
2022-10-09T05:29:46.310Z,16.03
2022-10-09T05:32:13.173Z,16.12
2022-10-09T05:34:40.075Z,15.99
2022-10-09T05:37:06.929Z,17.16
2022-10-09T05:39:36.035Z,17.32
2022-10-09T05:42:02.893Z,16.74
2022-10-09T05:44:29.824Z,16.54
2022-10-09T05:46:56.646Z,16.44
2022-10-09T05:49:23.767Z,16.70
2022-10-09T05:51:50.635Z,17.09
2022-10-09T05:54:18.301Z,16.79
2022-10-09T05:56:45.585Z,17.11
2022-10-09T05:59:15.267Z,17.09
2022-10-09T06:01:43.963Z,17.44
2022-10-09T06:04:19.840Z,17.57
2022-10-09T06:06:50.487Z,18.70
2022-10-09T06:09:22.291Z,18.25
2022-10-09T06:11:51.011Z,18.96
2022-10-09T06:14:18.383Z,19.77
2022-10-09T06:16:46.222Z,20.28
2022-10-09T06:19:15.259Z,19.61
2022-10-09T06:21:42.742Z,20.35
2022-10-09T06:24:17.222Z,19.68
2022-10-09T06:26:44.158Z,19.29
2022-10-09T06:29:11.026Z,19.39
2022-10-09T06:31:38.517Z,17.28
2022-10-09T06:34:05.488Z,17.97
2022-10-09T06:36:34.082Z,19.18
2022-10-09T06:39:02.445Z,19.83
2022-10-09T06:41:30.002Z,20.69
2022-10-09T06:43:59.179Z,20.97
2022-10-09T06:46:32.204Z,21.27
2022-10-09T06:49:00.371Z,21.33
2022-10-09T06:51:31.083Z,21.51
2022-10-09T06:53:59.891Z,21.56
2022-10-09T06:56:29.987Z,20.71
2022-10-09T06:58:59.181Z,20.77
2022-10-09T07:01:27.642Z,19.38
2022-10-09T07:03:56.937Z,19.30
2022-10-09T07:06:25.973Z,18.93
2022-10-09T07:08:55.262Z,19.27
2022-10-09T07:11:27.629Z,19.63
2022-10-09T07:13:56.444Z,18.41
2022-10-09T07:16:28.739Z,18.41
2022-10-09T07:18:55.842Z,18.19
2022-10-09T07:21:24.134Z,19.18
2022-10-09T07:23:50.995Z,19.54
2022-10-09T07:26:20.448Z,19.13
2022-10-09T07:28:48.506Z,19.19
2022-10-09T07:31:15.872Z,21.09
2022-10-09T07:33:42.964Z,21.02
2022-10-09T07:36:10.414Z,21.29
2022-10-09T07:38:37.243Z,21.24
2022-10-09T07:41:09.495Z,20.07
2022-10-09T07:43:40.825Z,20.45
2022-10-09T07:46:11.810Z,20.76
2022-10-09T07:48:39.192Z,20.72
2022-10-09T07:51:09.065Z,20.97
2022-10-09T07:53:36.279Z,21.19
2022-10-09T07:56:04.558Z,19.15
2022-10-09T07:58:31.757Z,19.39
2022-10-09T08:01:04.782Z,20.69
2022-10-09T08:03:31.669Z,20.56
2022-10-09T08:05:58.762Z,20.23
2022-10-09T08:08:25.723Z,21.05
2022-10-09T08:10:52.599Z,20.80
2022-10-09T08:13:19.438Z,20.46
2022-10-09T08:15:46.323Z,20.32
2022-10-09T08:18:13.274Z,19.56
2022-10-09T08:20:40.153Z,19.92
2022-10-09T08:23:06.999Z,19.81
2022-10-09T08:25:37.608Z,20.58
2022-10-09T08:28:05.180Z,20.01
2022-10-09T08:30:32.266Z,19.37
2022-10-09T08:32:59.116Z,20.14
2022-10-09T08:35:26.835Z,20.45
2022-10-09T08:37:53.828Z,20.71
2022-10-09T08:40:29.908Z,20.60
2022-10-09T08:43:08.093Z,20.67
2022-10-09T08:45:35.433Z,19.60
2022-10-09T08:48:08.884Z,19.87
2022-10-09T08:50:38.401Z,20.10
2022-10-09T08:53:32.113Z,20.93
2022-10-09T08:56:01.610Z,20.52
2022-10-09T08:58:34.995Z,20.22
2022-10-09T09:01:16.042Z,20.23
2022-10-09T09:03:52.797Z,20.68
2022-10-09T09:06:31.691Z,20.08
2022-10-09T09:09:19.682Z,20.66
2022-10-09T09:11:50.770Z,20.58
2022-10-09T09:14:32.619Z,20.13
2022-10-09T09:17:05.852Z,20.19
2022-10-09T09:19:41.351Z,20.07
2022-10-09T09:22:14.401Z,19.58
2022-10-09T09:24:53.074Z,20.28
2022-10-09T09:27:25.080Z,19.92
2022-10-09T09:30:13.147Z,19.99
2022-10-09T09:33:14.489Z,20.85
2022-10-09T09:36:08.674Z,21.75
2022-10-09T09:38:47.778Z,20.68
2022-10-09T09:41:23.868Z,21.39
2022-10-09T09:43:50.795Z,21.07
2022-10-09T09:46:21.595Z,21.56
2022-10-09T09:48:49.507Z,21.64
2022-10-09T09:51:30.117Z,21.21
2022-10-09T09:54:00.021Z,20.72
2022-10-09T09:56:53.290Z,21.14
2022-10-09T09:59:26.513Z,20.90
2022-10-09T10:02:22.703Z,20.42
2022-10-09T10:04:51.279Z,21.32
2022-10-09T10:07:50.226Z,20.59
2022-10-09T10:10:25.279Z,19.56
2022-10-09T10:12:52.565Z,20.59
2022-10-09T10:15:24.745Z,19.80
2022-10-09T10:18:07.820Z,20.44
2022-10-09T10:20:44.672Z,20.59
2022-10-09T10:23:30.246Z,20.61
2022-10-09T10:25:58.407Z,20.81
2022-10-09T10:28:29.517Z,20.95
2022-10-09T10:30:57.608Z,20.67
2022-10-09T10:33:30.262Z,20.78
2022-10-09T10:35:58.716Z,20.46
2022-10-09T10:38:48.044Z,20.15
2022-10-09T10:41:21.923Z,20.80
2022-10-09T10:43:51.895Z,21.18
2022-10-09T10:46:49.749Z,21.48
2022-10-09T10:49:21.956Z,21.95
2022-10-09T10:52:16.848Z,21.11
2022-10-09T10:54:59.675Z,21.52
2022-10-09T10:57:39.435Z,21.17
2022-10-09T11:00:08.816Z,20.64
2022-10-09T11:02:57.496Z,20.47
2022-10-09T11:05:27.171Z,20.33
2022-10-09T11:08:03.871Z,20.90
2022-10-09T11:10:42.685Z,19.99
2022-10-09T11:13:22.082Z,21.10
2022-10-09T11:16:04.225Z,20.96
2022-10-09T11:18:47.354Z,21.11
2022-10-09T11:21:43.871Z,21.57
2022-10-09T11:24:32.277Z,21.65
2022-10-09T11:27:05.127Z,20.61
2022-10-09T11:29:43.842Z,21.24
2022-10-09T11:32:18.877Z,20.47
2022-10-09T11:34:53.406Z,21.01
2022-10-09T11:37:27.724Z,21.95
2022-10-09T11:39:56.272Z,22.72
2022-10-09T11:42:24.562Z,21.74
2022-10-09T11:45:02.047Z,20.99
2022-10-09T11:47:39.534Z,21.88
2022-10-09T11:50:23.076Z,22.43
2022-10-09T11:52:56.065Z,22.22
2022-10-09T11:55:26.046Z,21.94
2022-10-09T11:57:53.459Z,21.51
2022-10-09T12:00:36.202Z,21.48
2022-10-09T12:03:05.320Z,22.19
2022-10-09T12:05:50.609Z,21.44
2022-10-09T12:08:26.376Z,22.42
2022-10-09T12:11:19.459Z,21.49
2022-10-09T12:13:50.102Z,21.06
2022-10-09T12:16:42.382Z,21.64
2022-10-09T12:19:23.713Z,21.66
2022-10-09T12:22:04.778Z,22.38
2022-10-09T12:24:43.195Z,23.46
2022-10-09T12:27:19.394Z,22.74
2022-10-09T12:29:48.657Z,21.24
2022-10-09T12:32:26.469Z,20.70
2022-10-09T12:34:54.407Z,21.35
2022-10-09T12:37:30.481Z,20.74
2022-10-09T12:40:08.208Z,20.85
2022-10-09T12:42:35.157Z,21.11
2022-10-09T12:45:02.109Z,21.50
2022-10-09T12:47:29.791Z,21.82
2022-10-09T12:50:03.772Z,21.89
2022-10-09T12:52:32.111Z,20.85
2022-10-09T12:54:58.953Z,20.66
2022-10-09T12:57:27.697Z,20.75
2022-10-09T12:59:55.199Z,21.61
2022-10-09T13:02:22.663Z,21.11
2022-10-09T13:04:58.539Z,20.28
2022-10-09T13:07:26.755Z,20.25
2022-10-09T13:09:59.613Z,19.98
2022-10-09T13:12:28.459Z,19.71
2022-10-09T13:15:01.137Z,19.35
2022-10-09T13:17:36.727Z,19.67
2022-10-09T13:20:12.727Z,20.06
2022-10-09T13:22:40.027Z,20.40
2022-10-09T13:25:07.413Z,20.07
2022-10-09T13:27:37.662Z,18.95
2022-10-09T13:30:06.143Z,18.77
2022-10-09T13:32:33.014Z,18.89
2022-10-09T13:34:59.882Z,19.14
2022-10-09T13:37:27.258Z,18.93
2022-10-09T13:39:58.692Z,18.55
2022-10-09T13:42:28.104Z,18.71
2022-10-09T13:44:55.003Z,19.30
2022-10-09T13:47:24.584Z,19.06
2022-10-09T13:49:51.775Z,19.68
2022-10-09T13:52:18.669Z,18.93
2022-10-09T13:54:45.553Z,19.60
2022-10-09T13:57:12.557Z,18.84
2022-10-09T13:59:39.612Z,18.95
2022-10-09T14:02:06.594Z,19.11
2022-10-09T14:04:33.423Z,20.10
2022-10-09T14:07:00.326Z,19.12
2022-10-09T14:09:27.256Z,20.00
2022-10-09T14:11:54.449Z,19.00
2022-10-09T14:14:22.678Z,18.82
2022-10-09T14:16:50.875Z,18.64
2022-10-09T14:19:18.258Z,19.46
2022-10-09T14:21:46.956Z,19.32
2022-10-09T14:24:14.681Z,20.22
2022-10-09T14:26:41.520Z,20.08
2022-10-09T14:29:09.885Z,19.73
2022-10-09T14:31:37.235Z,19.96
2022-10-09T14:34:04.107Z,20.20
2022-10-09T14:36:31.785Z,20.13
2022-10-09T14:39:01.557Z,19.92
2022-10-09T14:41:32.161Z,19.86
2022-10-09T14:44:01.353Z,20.23
2022-10-09T14:46:29.526Z,19.61
2022-10-09T14:48:57.969Z,18.97
2022-10-09T14:51:26.731Z,19.40
2022-10-09T14:53:58.576Z,19.25
2022-10-09T14:56:26.493Z,19.15
2022-10-09T14:58:53.692Z,19.52
2022-10-09T15:01:21.798Z,19.89
2022-10-09T15:03:48.742Z,20.05
2022-10-09T15:06:24.028Z,19.52
2022-10-09T15:08:54.121Z,19.84
2022-10-09T15:11:20.992Z,19.28
2022-10-09T15:13:47.857Z,19.53
2022-10-09T15:16:16.803Z,20.46
2022-10-09T15:18:44.489Z,20.34
2022-10-09T15:21:13.649Z,19.68
2022-10-09T15:23:40.927Z,19.51
2022-10-09T15:26:08.607Z,19.14
2022-10-09T15:28:36.755Z,19.16
2022-10-09T15:31:04.783Z,19.83
2022-10-09T15:33:32.122Z,19.73
2022-10-09T15:35:59.129Z,20.73
2022-10-09T15:38:26.564Z,21.51
2022-10-09T15:40:55.450Z,22.60
2022-10-09T15:43:24.635Z,23.29
2022-10-09T15:45:54.235Z,22.91
2022-10-09T15:48:23.193Z,22.70
2022-10-09T15:50:52.314Z,22.79
2022-10-09T15:53:21.353Z,23.16
2022-10-09T15:55:50.037Z,23.39
2022-10-09T15:58:17.428Z,23.66
2022-10-09T16:00:50.035Z,23.70
2022-10-09T16:03:18.986Z,23.76
2022-10-09T16:05:49.031Z,22.85
2022-10-09T16:08:16.972Z,22.56
2022-10-09T16:10:48.797Z,22.63
2022-10-09T16:13:16.571Z,23.13
2022-10-09T16:15:50.330Z,23.25
2022-10-09T16:18:20.209Z,23.22
2022-10-09T16:20:47.319Z,22.16
2022-10-09T16:23:14.710Z,21.61
2022-10-09T16:25:42.216Z,21.82
2022-10-09T16:28:10.441Z,21.87
2022-10-09T16:30:44.034Z,22.28
2022-10-09T16:33:12.898Z,22.16
2022-10-09T16:35:40.098Z,21.77
2022-10-09T16:38:07.258Z,21.56
2022-10-09T16:43:20.980Z,21.03
2022-10-09T16:45:47.811Z,21.46
2022-10-09T16:48:14.682Z,21.22
2022-10-09T16:50:42.462Z,20.60
2022-10-09T16:53:09.566Z,20.39
2022-10-09T16:55:37.520Z,20.76
2022-10-09T16:58:04.998Z,20.89
2022-10-09T17:00:31.904Z,20.42
2022-10-09T17:02:59.345Z,19.94
2022-10-09T17:05:26.287Z,19.91
2022-10-09T17:07:54.478Z,20.79
2022-10-09T17:10:21.459Z,20.88
2022-10-09T17:12:48.303Z,20.31
2022-10-09T17:15:15.195Z,19.67
2022-10-09T17:17:42.106Z,19.84
2022-10-09T17:20:09.410Z,19.93
2022-10-09T17:22:36.314Z,19.55
2022-10-09T17:25:03.413Z,19.71
2022-10-09T17:27:30.291Z,19.80
2022-10-09T17:29:57.135Z,19.65
2022-10-09T17:32:24.063Z,19.67
2022-10-09T17:34:51.337Z,19.27
2022-10-09T17:37:18.178Z,18.88
2022-10-09T17:39:49.730Z,19.04
2022-10-09T17:42:18.779Z,19.58
2022-10-09T17:44:45.624Z,19.42
2022-10-09T17:47:12.505Z,18.77
2022-10-09T17:49:39.356Z,18.56
2022-10-09T17:52:06.196Z,18.77
2022-10-09T17:54:33.048Z,18.63
2022-10-09T17:57:01.441Z,18.60
2022-10-09T17:59:28.300Z,18.20
2022-10-09T18:01:55.245Z,18.03
2022-10-09T18:04:22.442Z,17.98
2022-10-09T18:06:49.356Z,17.86
2022-10-09T18:09:16.335Z,18.58
2022-10-09T18:11:43.608Z,19.32
2022-10-09T18:14:11.825Z,18.95
2022-10-09T18:16:39.513Z,18.61
2022-10-09T18:19:12.491Z,18.60
2022-10-09T18:21:41.943Z,18.74
2022-10-09T18:24:09.079Z,18.52
2022-10-09T18:26:36.274Z,18.06
2022-10-09T18:29:04.419Z,18.14
2022-10-09T18:31:31.448Z,18.54
2022-10-09T18:33:59.820Z,18.92
2022-10-09T18:36:31.652Z,18.58
2022-10-09T18:39:05.182Z,18.64
2022-10-09T18:41:32.196Z,18.67
2022-10-09T18:44:02.126Z,17.66
2022-10-09T18:46:39.250Z,17.89
2022-10-09T18:49:10.753Z,18.07
2022-10-09T18:51:40.175Z,17.91
2022-10-09T18:54:07.933Z,17.64
2022-10-09T18:56:35.602Z,17.76
2022-10-09T18:59:06.758Z,17.68
2022-10-09T19:01:33.743Z,17.84
2022-10-09T19:04:00.717Z,17.94
2022-10-09T19:06:27.672Z,17.05
2022-10-09T19:08:57.974Z,16.70
2022-10-09T19:11:24.891Z,16.70
2022-10-09T19:13:51.750Z,16.88
2022-10-09T19:16:18.615Z,17.99
2022-10-09T19:18:45.472Z,18.30
2022-10-09T19:21:13.857Z,17.63
2022-10-09T19:23:41.282Z,17.49
2022-10-09T19:26:08.434Z,17.93
2022-10-09T19:28:38.148Z,17.58
2022-10-09T19:31:06.719Z,16.76
2022-10-09T19:33:33.775Z,17.31
2022-10-09T19:36:00.930Z,17.17
2022-10-09T19:38:28.288Z,16.80
2022-10-09T19:40:55.169Z,17.02
2022-10-09T19:43:22.077Z,17.09
2022-10-09T19:45:50.603Z,16.76
2022-10-09T19:48:18.372Z,16.70
2022-10-09T19:50:45.803Z,16.80
2022-10-09T19:53:13.524Z,16.13
2022-10-09T19:55:40.618Z,16.97
2022-10-09T19:58:07.647Z,16.78
2022-10-09T20:00:34.479Z,16.81
2022-10-09T20:03:01.307Z,17.45
2022-10-09T20:05:28.216Z,17.13
2022-10-09T20:07:55.064Z,17.22
2022-10-09T20:10:21.950Z,17.29
2022-10-09T20:12:49.027Z,16.69
2022-10-09T20:15:16.152Z,17.34
2022-10-09T20:17:42.975Z,17.35
2022-10-09T20:20:10.260Z,16.55
2022-10-09T20:22:37.162Z,17.05
2022-10-09T20:25:04.501Z,17.57
2022-10-09T20:27:31.755Z,17.59
2022-10-09T20:29:58.683Z,17.44
2022-10-09T20:32:25.777Z,16.41
2022-10-09T20:34:52.647Z,16.83
2022-10-09T20:37:19.737Z,17.01
2022-10-09T20:39:46.674Z,17.01
2022-10-09T20:42:13.565Z,16.53
2022-10-09T20:44:40.508Z,16.24
2022-10-09T20:47:07.815Z,16.29
2022-10-09T20:49:34.667Z,16.93
2022-10-09T20:52:01.538Z,16.81
2022-10-09T20:54:30.513Z,16.51
2022-10-09T20:56:57.423Z,16.52
2022-10-09T20:59:24.304Z,16.74
2022-10-09T21:01:51.142Z,16.55
2022-10-09T21:04:18.005Z,16.58
2022-10-09T21:06:44.839Z,16.60
2022-10-09T21:09:11.775Z,16.87
2022-10-09T21:11:40.456Z,17.51
2022-10-09T21:14:07.444Z,16.90
2022-10-09T21:16:34.338Z,16.66
2022-10-09T21:19:04.149Z,16.75
2022-10-09T21:21:31.933Z,16.62
2022-10-09T21:24:00.069Z,15.98
2022-10-09T21:26:28.603Z,16.45
2022-10-09T21:28:59.260Z,16.22
2022-10-09T21:31:28.714Z,16.82
2022-10-09T21:33:55.767Z,16.34
2022-10-09T21:36:56.192Z,16.34
2022-10-09T21:39:30.687Z,16.60
2022-10-09T21:41:57.610Z,15.30
2022-10-09T21:44:24.557Z,15.10
2022-10-09T21:46:51.380Z,15.61
2022-10-09T21:49:25.931Z,15.69
2022-10-09T21:51:53.290Z,15.69
2022-10-09T21:54:20.528Z,15.32
2022-10-09T21:56:47.498Z,15.62
2022-10-09T21:59:14.460Z,16.18
2022-10-09T22:01:41.367Z,16.15
2022-10-09T22:04:08.226Z,16.18
2022-10-09T22:06:35.080Z,16.23
2022-10-09T22:09:01.981Z,16.01
2022-10-09T22:11:28.932Z,14.98
2022-10-09T22:13:56.224Z,16.08
2022-10-09T22:16:23.461Z,16.06
2022-10-09T22:18:50.303Z,15.55
2022-10-09T22:21:19.002Z,16.20
2022-10-09T22:23:45.878Z,15.91
2022-10-09T22:26:16.805Z,15.89
2022-10-09T22:28:44.819Z,16.02
2022-10-09T22:31:19.250Z,16.39
2022-10-09T22:33:53.642Z,16.48
2022-10-09T22:36:22.054Z,16.91
2022-10-09T22:38:48.904Z,16.63
2022-10-09T22:41:20.267Z,16.86
2022-10-09T22:43:49.150Z,17.22
2022-10-09T22:46:19.211Z,17.30
2022-10-09T22:48:46.369Z,17.27
2022-10-09T22:51:16.248Z,17.19
2022-10-09T22:53:44.485Z,16.17
2022-10-09T22:56:19.628Z,16.27
2022-10-09T22:58:47.330Z,16.32
2022-10-09T23:01:22.159Z,16.85
2022-10-09T23:03:49.132Z,16.31
2022-10-09T23:06:18.492Z,16.31
2022-10-09T23:08:47.356Z,16.34
2022-10-09T23:11:15.976Z,16.58
2022-10-09T23:13:44.124Z,16.53
2022-10-09T23:16:12.226Z,16.71
2022-10-09T23:18:40.296Z,15.88
2022-10-09T23:21:13.633Z,16.12
2022-10-09T23:23:41.029Z,16.38
2022-10-09T23:26:10.067Z,16.41
2022-10-09T23:28:37.060Z,16.39
2022-10-09T23:31:06.480Z,15.91
2022-10-09T23:33:33.381Z,15.53
2022-10-09T23:36:02.703Z,15.65
2022-10-09T23:38:29.571Z,16.08
2022-10-09T23:41:01.482Z,15.29
2022-10-09T23:43:29.379Z,15.23
2022-10-09T23:45:57.689Z,16.03
2022-10-09T23:48:24.667Z,14.57
2022-10-09T23:50:52.987Z,15.28
2022-10-09T23:53:20.388Z,15.82
2022-10-09T23:55:47.389Z,15.31
2022-10-09T23:58:19.860Z,16.05
